• Join FlightAware (Why Join?)
  • Login
  • US Flag 
09:01AM EDT


 

Airport Tracker/Info


-or-


 

Live Flight TrackerFlight Track Log ✈ N254SR ✈ 01-Sep-2013 ✈ KAHN - KRYY

Flight Track Log - Related Links

Times and Time Zones

All times are in EDT time to prevent confusion due to time zone crossing. See the N254SR flight status page for this flight to view local times or setup timezone preferences in your user account.

Time Position Orientation Groundspeed Altitude Reporting Facility
EDT Latitude Longitude Course Direction KTS MPH feet Rate Location/Type
11:58AM 33.9500 -83.3500 292° West 112 129 1,500  Level Atlanta TRACON
11:59AM 33.9667 -83.4000 292° West 135 155 2,200 600 Climbing Atlanta TRACON
12:00PM 33.9667 -83.4333 270° West 139 160 2,800 600 Climbing Atlanta TRACON
12:01PM 33.9833 -83.4833 292° West 138 159 3,400 540 Climbing Atlanta TRACON
12:02PM 33.9833 -83.5333 270° West 144 166 3,900 240 Climbing Atlanta TRACON
12:03PM 33.9833 -83.5833 270° West 161 185 4,000  Climbing Atlanta TRACON
12:04PM 33.9833 -83.6333 270° West 160 184 4,000 -60 Level Atlanta TRACON
12:05PM 34.0000 -83.6833 292° West 162 186 3,900  Descending Atlanta TRACON
12:06PM 34.0000 -83.7333 270° West 162 186 4,000  Climbing Atlanta TRACON
12:07PM 34.0000 -83.8000 270° West 162 186 4,000 -60 Level Atlanta TRACON
12:08PM 34.0000 -83.8500 270° West 162 186 3,900  Descending Atlanta TRACON
12:09PM 34.0000 -83.9000 270° West 162 186 4,000  Climbing Atlanta TRACON
12:10PM 34.0000 -83.9500 270° West 161 185 4,000 -60 Level Atlanta TRACON
12:11PM 34.0000 -84.0000 270° West 158 182 3,900 -60 Descending Atlanta TRACON
12:12PM 34.0000 -84.0667 270° West 157 181 3,900  Level Atlanta TRACON
12:13PM 34.0000 -84.1167 270° West 160 184 3,900  Level Atlanta TRACON
12:14PM 34.0167 -84.1667 292° West 162 186 4,000 -60 Climbing Atlanta TRACON
12:15PM 34.0167 -84.2167 270° West 167 192 3,800 -300 Descending Atlanta TRACON
12:16PM 34.0167 -84.2833 270° West 172 198 3,400 -420 Descending Atlanta TRACON
12:17PM 34.0167 -84.3333 270° West 168 193 3,000 -300 Descending Atlanta TRACON
12:18PM 34.0167 -84.3833 270° West 157 181 2,900 -60 Descending Atlanta TRACON
12:19PM 34.0167 -84.4333 270° West 155 178 2,900 -120 Level Atlanta TRACON
12:20PM 34.0167 -84.4833 270° West 153 176 2,700 -600 Descending Atlanta TRACON
12:21PM 34.0167 -84.5333 270° West 125 144 1,800 -660 Descending Atlanta TRACON
12:22PM 34.0167 -84.5667 270° West 105 121 1,400 -420 Descending Atlanta TRACON
12:24PM 34.0000 -84.5833 270° West  Level FlightAware Approximate
12:31PM 34.0132 -84.5971 270° West  Level Estimated